Time;durP1;ratioP1;P1;durP2;ratioP2;P2;SDS_P1;SDS_P2;PMS_P1;PMS_P2;Temp;Humidity;BMP_temperature;BMP_pressure;BME280_temperature;BME280_humidity;BME280_pressure;Samples;Min_cycle;Max_cycle;Signal;HPM_P1;HPM_P2
2023/03/10 00:01:26;;;;;;;5.82;3.00;;;;;;;19.20;40.93;98629.66;5033351;28;20034;-68
2023/03/10 00:03:52;;;;;;;;;;;;;;;19.25;40.71;98644.97;5040752;28;20033;-68
2023/03/10 00:06:19;;;;;;;4.20;2.38;;;;;;;19.24;40.77;98644.16;5033186;28;20387;-69
2023/03/10 00:08:45;;;;;;;4.80;2.50;;;;;;;19.23;40.73;98649.63;5034221;28;20067;-69
2023/03/10 00:11:11;;;;;;;6.20;2.55;;;;;;;19.21;40.79;98655.91;5032051;28;20025;-68
2023/03/10 00:13:37;;;;;;;9.40;2.53;;;;;;;19.19;40.85;98652.63;5032217;28;20537;-71
2023/03/10 00:16:03;;;;;;;4.10;2.25;;;;;;;19.17;40.86;98652.00;5031235;28;20037;-70
2023/03/10 00:18:28;;;;;;;4.53;2.53;;;;;;;19.14;40.63;98638.34;5032719;28;20127;-69
2023/03/10 00:20:54;;;;;;;4.38;2.53;;;;;;;19.12;40.61;98641.19;5033025;28;20525;-69
2023/03/10 00:23:20;;;;;;;3.63;2.10;;;;;;;19.11;40.93;98628.16;5032014;28;20102;-72
2023/03/10 00:25:53;;;;;;;4.15;2.53;;;;;;;19.09;40.74;98633.63;5032233;28;20147;-70
2023/03/10 00:28:19;;;;;;;4.10;2.20;;;;;;;19.10;40.71;98629.16;5023453;28;20037;-70
2023/03/10 00:30:44;;;;;;;4.15;2.15;;;;;;;19.11;40.91;98636.09;5032111;28;20033;-68
2023/03/10 00:33:09;;;;;;;4.00;2.20;;;;;;;19.09;40.63;98624.88;5032387;28;20041;-70
2023/03/10 00:35:35;;;;;;;4.80;2.30;;;;;;;19.08;40.65;98631.16;5032458;28;20360;-71
2023/03/10 00:38:01;;;;;;;5.20;2.20;;;;;;;19.04;40.79;98633.34;5033175;28;20091;-71
2023/03/10 00:40:26;;;;;;;4.15;2.20;;;;;;;19.05;40.61;98636.81;5032250;28;20039;-69
2023/03/10 00:42:52;;;;;;;3.85;2.10;;;;;;;19.06;40.73;98641.06;5032573;28;20037;-72
2023/03/10 00:45:17;;;;;;;4.30;2.10;;;;;;;19.01;40.83;98633.72;5023307;28;20110;-71
2023/03/10 00:47:42;;;;;;;3.50;1.90;;;;;;;18.99;40.97;98639.19;5032630;28;20025;-69
2023/03/10 00:50:08;;;;;;;4.82;2.22;;;;;;;19.00;40.81;98638.19;5031842;28;20036;-69
2023/03/10 00:52:34;;;;;;;4.32;2.30;;;;;;;18.95;40.88;98632.63;5033023;28;20045;-70
2023/03/10 00:54:59;;;;;;;3.35;2.00;;;;;;;18.94;40.71;98632.81;5032783;28;20412;-70
2023/03/10 00:57:25;;;;;;;3.45;2.00;;;;;;;18.96;40.92;98642.19;5031989;28;20131;-69
2023/03/10 00:59:50;;;;;;;3.95;2.30;;;;;;;18.94;40.89;98643.38;5031965;28;20389;-70
2023/03/10 01:02:18;;;;;;;3.47;1.98;;;;;;;18.91;41.06;98641.91;5031611;28;20481;-70
2023/03/10 01:04:43;;;;;;;4.05;2.33;;;;;;;18.88;40.83;98641.47;5031944;28;20041;-70
2023/03/10 01:07:08;;;;;;;3.70;2.17;;;;;;;18.85;40.89;98640.84;5031938;28;20266;-71
2023/03/10 01:09:34;;;;;;;3.85;2.08;;;;;;;18.86;41.19;98641.63;5031771;28;20416;-68
2023/03/10 01:11:59;;;;;;;4.15;2.30;;;;;;;18.87;40.88;98637.19;5031630;28;20029;-70
2023/03/10 01:14:24;;;;;;;4.25;1.98;;;;;;;18.84;41.06;98633.09;5021791;28;20037;-69
2023/03/10 01:16:50;;;;;;;3.55;1.73;;;;;;;18.84;40.93;98630.47;5030971;28;20036;-68
2023/03/10 01:19:17;;;;;;;4.00;2.10;;;;;;;18.83;41.11;98626.13;5031193;28;20128;-70
2023/03/10 01:21:42;;;;;;;4.38;1.70;;;;;;;18.79;41.26;98627.53;5031596;28;20057;-70
2023/03/10 01:24:13;;;;;;;3.55;1.83;;;;;;;18.81;41.09;98630.78;5030968;28;20037;-70
2023/03/10 01:26:38;;;;;;;4.13;1.80;;;;;;;18.77;41.34;98617.16;5031403;28;20060;-69
2023/03/10 01:29:03;;;;;;;3.75;1.70;;;;;;;18.79;41.03;98616.97;5031220;28;20067;-70
2023/03/10 01:31:29;;;;;;;3.80;1.70;;;;;;;18.78;41.36;98617.97;5030911;28;20393;-70
2023/03/10 01:33:54;;;;;;;2.80;1.48;;;;;;;18.73;41.54;98605.31;5029810;28;20037;-72
2023/03/10 01:36:22;;;;;;;4.07;1.67;;;;;;;18.76;41.49;98614.69;5030511;28;20300;-72
2023/03/10 01:38:48;;;;;;;4.18;1.52;;;;;;;18.75;41.62;98607.78;5031181;28;20040;-69
2023/03/10 01:41:14;;;;;;;4.72;1.80;;;;;;;18.75;41.45;98607.78;5030939;28;20031;-69
2023/03/10 01:43:42;;;;;;;3.72;2.40;;;;;;;18.71;41.80;98603.84;5031869;28;20033;-70
2023/03/10 01:46:27;;;;;;;3.90;1.50;;;;;;;18.68;41.83;98597.13;5030228;28;20147;-68
2023/03/10 01:48:55;;;;;;;3.45;1.40;;;;;;;18.66;41.78;98586.75;5038237;28;20029;-69
2023/03/10 01:51:20;;;;;;;4.70;1.60;;;;;;;18.64;42.23;98583.50;5031285;28;20034;-69
2023/03/10 01:53:46;;;;;;;3.75;1.60;;;;;;;18.64;41.90;98585.28;5030930;28;20390;-71
2023/03/10 01:56:13;;;;;;;3.15;1.40;;;;;;;18.66;41.95;98592.03;5030888;28;20033;-70
2023/03/10 01:58:42;;;;;;;3.10;1.40;;;;;;;18.63;41.99;98591.59;5031077;28;20025;-70
2023/03/10 02:01:10;;;;;;;2.90;1.40;;;;;;;18.61;42.02;98577.75;5031021;28;20405;-69
2023/03/10 02:04:02;;;;;;;2.75;1.30;;;;;;;18.64;42.25;98585.28;5030952;28;20029;-68
2023/03/10 02:06:28;;;;;;;3.03;1.40;;;;;;;18.61;41.80;98585.66;5031041;28;20064;-69
2023/03/10 02:08:57;;;;;;;3.28;1.50;;;;;;;18.61;42.22;98596.22;5031274;28;20423;-69
2023/03/10 02:11:23;;;;;;;2.67;1.45;;;;;;;18.61;42.14;98593.56;5030811;28;20071;-69
2023/03/10 02:13:49;;;;;;;2.88;1.30;;;;;;;18.59;42.26;98583.19;5030775;28;20068;-68
2023/03/10 02:16:15;;;;;;;2.40;1.20;;;;;;;18.56;42.49;98580.13;5030671;28;20041;-69
2023/03/10 02:18:43;;;;;;;2.45;1.30;;;;;;;18.58;42.68;98586.84;5034222;28;20053;-70
2023/03/10 02:21:41;;;;;;;2.88;1.38;;;;;;;18.59;42.37;98583.19;5025323;28;20483;-69
2023/03/10 02:24:23;;;;;;;2.42;1.17;;;;;;;18.58;42.50;98580.75;5026974;28;20057;-70
2023/03/10 02:26:59;;;;;;;3.55;1.20;;;;;;;18.57;42.60;98572.03;5034263;28;20029;-71
2023/03/10 02:29:32;;;;;;;2.20;1.15;;;;;;;18.56;42.38;98565.09;5034813;28;20103;-69
2023/03/10 02:31:58;;;;;;;2.33;1.20;;;;;;;18.58;42.22;98563.13;5034737;28;20038;-69
2023/03/10 02:34:25;;;;;;;3.03;1.27;;;;;;;18.57;42.48;98558.03;5034486;28;20080;-69
2023/03/10 02:36:51;;;;;;;3.65;1.30;;;;;;;18.57;42.39;98558.84;5034067;28;20037;-70
2023/03/10 02:39:16;;;;;;;2.72;1.27;;;;;;;18.57;42.41;98553.56;5034348;28;20034;-70
2023/03/10 02:41:42;;;;;;;2.78;1.38;;;;;;;18.55;42.46;98549.44;5034564;28;20493;-70
2023/03/10 02:44:12;;;;;;;3.47;1.40;;;;;;;18.53;42.62;98552.28;5034181;28;20533;-71
2023/03/10 02:46:37;;;;;;;2.17;1.13;;;;;;;18.57;42.42;98552.75;5033466;28;20060;-69
2023/03/10 02:49:06;;;;;;;2.17;1.10;;;;;;;18.53;42.50;98544.34;5034218;28;20029;-71
2023/03/10 02:51:43;;;;;;;2.53;1.00;;;;;;;18.53;42.23;98536.44;5024980;28;20072;-71
2023/03/10 02:54:10;;;;;;;2.90;1.10;;;;;;;18.52;42.65;98532.19;5034244;28;20033;-70
2023/03/10 02:56:36;;;;;;;2.40;1.17;;;;;;;18.51;42.45;98527.91;5034257;28;20055;-70
2023/03/10 02:59:03;;;;;;;2.42;1.23;;;;;;;18.52;42.60;98532.19;5034200;28;20033;-70
2023/03/10 03:01:31;;;;;;;3.33;1.30;;;;;;;18.50;42.47;98526.28;5033283;28;20195;-70
2023/03/10 03:03:57;;;;;;;3.13;1.10;;;;;;;18.42;42.50;98514.00;5033908;28;20445;-68
2023/03/10 03:06:22;;;;;;;3.03;1.38;;;;;;;18.47;42.68;98516.91;5034002;28;20098;-70
2023/03/10 03:08:48;;;;;;;2.70;1.20;;;;;;;18.52;42.42;98528.72;5032419;28;20029;-69
2023/03/10 03:11:14;;;;;;;3.92;1.30;;;;;;;18.49;42.46;98514.09;5034558;28;20058;-70
2023/03/10 03:13:39;;;;;;;2.55;1.13;;;;;;;18.49;42.43;98514.91;5033407;28;20037;-70
2023/03/10 03:16:07;;;;;;;2.58;1.30;;;;;;;18.48;42.29;98512.44;5033521;28;20035;-69
2023/03/10 03:18:32;;;;;;;2.33;1.10;;;;;;;18.48;42.39;98518.56;5033206;28;20053;-72
2023/03/10 03:20:57;;;;;;;2.70;1.10;;;;;;;18.45;42.58;98507.53;5034087;28;20060;-70
2023/03/10 03:23:23;;;;;;;2.83;1.05;;;;;;;18.46;42.25;98515.25;5033467;28;20033;-71
2023/03/10 03:25:48;;;;;;;2.03;0.90;;;;;;;18.38;42.29;98494.28;5033249;28;20033;-70
2023/03/10 03:28:13;;;;;;;3.80;1.25;;;;;;;18.42;42.42;98506.09;5032353;28;20140;-70
2023/03/10 03:30:39;;;;;;;2.97;1.10;;;;;;;18.41;42.64;98501.81;5024011;28;20469;-69
2023/03/10 03:33:06;;;;;;;2.30;1.05;;;;;;;18.44;42.72;98512.00;5033369;28;20098;-70
2023/03/10 03:35:34;;;;;;;2.33;0.98;;;;;;;18.37;42.54;98500.53;5033040;28;20044;-72
2023/03/10 03:38:00;;;;;;;2.75;1.27;;;;;;;18.42;42.68;98510.53;5033134;28;20060;-69
2023/03/10 03:40:28;;;;;;;3.05;1.13;;;;;;;18.41;42.46;98516.84;5033256;28;20041;-70
2023/03/10 03:42:54;;;;;;;3.25;1.10;;;;;;;18.39;42.82;98514.38;5033301;28;20033;-67
2023/03/10 03:45:23;;;;;;;1.48;0.82;;;;;;;18.40;42.49;98515.19;5033365;28;20033;-68
2023/03/10 03:47:48;;;;;;;2.28;1.00;;;;;;;18.39;42.84;98509.09;5033308;28;20587;-71
2023/03/10 03:50:15;;;;;;;3.58;1.00;;;;;;;18.37;42.67;98511.09;5033238;28;20080;-70
2023/03/10 03:52:41;;;;;;;3.75;1.00;;;;;;;18.41;42.73;98508.91;5034069;28;20033;-68
2023/03/10 03:55:07;;;;;;;2.22;0.95;;;;;;;18.37;42.84;98505.00;5031820;28;20059;-68
2023/03/10 03:57:32;;;;;;;3.17;1.00;;;;;;;18.38;42.60;98501.38;5033127;28;20467;-68
2023/03/10 03:59:57;;;;;;;3.22;1.05;;;;;;;18.38;42.70;98494.28;5032559;28;20038;-67
2023/03/10 04:02:23;;;;;;;1.95;0.95;;;;;;;18.37;42.65;98502.38;5032077;28;20087;-70
2023/03/10 04:04:48;;;;;;;2.72;0.90;;;;;;;18.37;42.80;98500.53;5032669;28;20469;-69
2023/03/10 04:07:14;;;;;;;2.47;0.95;;;;;;;18.34;42.71;98495.66;5032675;28;20032;-70
2023/03/10 04:09:40;;;;;;;2.50;1.00;;;;;;;18.36;42.85;98491.00;5035369;28;20531;-69
2023/03/10 04:12:07;;;;;;;2.40;0.90;;;;;;;18.35;42.84;98488.56;5033362;28;20039;-68
2023/03/10 04:14:33;;;;;;;3.03;1.00;;;;;;;18.34;42.70;98484.25;5033168;28;20029;-70
2023/03/10 04:16:59;;;;;;;2.40;1.02;;;;;;;18.33;42.87;98488.72;5032438;28;20095;-69
2023/03/10 04:19:24;;;;;;;3.05;0.90;;;;;;;18.33;42.86;98495.84;5032232;28;20555;-69
2023/03/10 04:21:49;;;;;;;2.97;0.97;;;;;;;18.34;43.04;98482.47;5032573;28;20073;-69
2023/03/10 04:24:14;;;;;;;2.13;0.87;;;;;;;18.33;42.98;98483.47;5032854;28;21230;-69
2023/03/10 04:26:40;;;;;;;2.35;0.85;;;;;;;18.34;42.93;98493.00;5032500;28;20278;-70
2023/03/10 04:29:05;;;;;;;2.58;0.90;;;;;;;18.30;42.85;98487.25;5032542;28;20883;-69
2023/03/10 04:31:30;;;;;;;2.05;0.80;;;;;;;18.29;43.08;98493.56;5032564;28;20473;-68
2023/03/10 04:33:55;;;;;;;1.60;0.88;;;;;;;18.31;43.04;98494.19;5031885;28;20024;-71
2023/03/10 04:36:21;;;;;;;2.25;0.90;;;;;;;18.28;42.93;98488.47;5032601;28;20077;-69
2023/03/10 04:38:46;;;;;;;3.95;1.10;;;;;;;18.31;42.93;98494.19;5032244;28;20076;-69
2023/03/10 04:41:12;;;;;;;2.15;0.80;;;;;;;18.31;42.81;98494.19;5032677;28;20488;-69
2023/03/10 04:43:37;;;;;;;2.78;1.05;;;;;;;18.30;42.91;98478.53;5031792;28;20059;-68
2023/03/10 04:46:04;;;;;;;2.22;0.90;;;;;;;18.30;42.98;98483.81;5031932;28;20033;-69
2023/03/10 04:48:29;;;;;;;1.65;0.70;;;;;;;18.27;42.72;98471.00;5031245;28;20037;-69
2023/03/10 04:51:00;;;;;;;2.78;1.00;;;;;;;18.29;42.98;98476.91;5032413;28;20041;-70
2023/03/10 04:53:27;;;;;;;2.92;0.90;;;;;;;18.26;42.76;98467.56;5031579;28;20064;-69
2023/03/10 04:55:52;;;;;;;3.60;0.90;;;;;;;18.30;42.82;98473.28;5030826;28;20064;-70
2023/03/10 04:58:18;;;;;;;4.57;1.05;;;;;;;18.26;42.90;98469.34;5031812;28;20150;-70
2023/03/10 05:00:44;;;;;;;3.95;1.25;;;;;;;18.26;42.82;98470.19;5031885;28;20029;-71
2023/03/10 05:03:09;;;;;;;2.60;0.90;;;;;;;18.27;42.81;98471.00;5030738;28;20039;-72
2023/03/10 05:05:36;;;;;;;3.88;1.00;;;;;;;18.25;42.91;98468.53;5030698;28;20033;-69
2023/03/10 05:08:01;;;;;;;2.25;0.90;;;;;;;18.27;42.79;98471.00;5032123;28;20033;-69
2023/03/10 05:10:27;;;;;;;2.85;0.80;;;;;;;18.24;42.72;98466.09;5031506;28;20051;-70
2023/03/10 05:12:52;;;;;;;3.45;0.90;;;;;;;18.26;43.02;98469.34;5031586;28;20129;-69
2023/03/10 05:15:17;;;;;;;2.97;0.90;;;;;;;18.22;42.73;98461.00;5031255;28;20037;-69
2023/03/10 05:17:43;;;;;;;3.78;0.90;;;;;;;18.20;42.88;98456.91;5031301;28;20501;-71
2023/03/10 05:20:09;;;;;;;2.50;0.95;;;;;;;18.22;42.78;98463.63;5031570;28;20131;-69
2023/03/10 05:22:37;;;;;;;2.50;0.80;;;;;;;18.21;42.89;98463.81;5031772;28;20140;-67
2023/03/10 05:25:03;;;;;;;3.15;0.98;;;;;;;18.19;42.89;98458.72;5031374;28;20025;-71
2023/03/10 05:27:31;;;;;;;3.53;1.15;;;;;;;18.19;43.08;98457.91;5030216;28;20037;-69
2023/03/10 05:29:56;;;;;;;4.35;1.27;;;;;;;18.20;42.97;98470.09;5030916;28;20029;-69
2023/03/10 05:32:22;;;;;;;2.55;0.80;;;;;;;18.17;43.15;98465.19;5030879;28;20039;-70
2023/03/10 05:34:47;;;;;;;1.95;0.90;;;;;;;18.18;42.82;98467.63;5029645;28;20090;-70
2023/03/10 05:37:12;;;;;;;3.72;1.27;;;;;;;18.20;42.87;98473.56;5031024;28;20508;-69
2023/03/10 05:39:38;;;;;;;2.95;0.98;;;;;;;18.21;42.83;98479.63;5031037;28;20043;-69
2023/03/10 05:42:03;;;;;;;3.45;0.88;;;;;;;18.19;42.71;98473.75;5031034;28;20040;-70
2023/03/10 05:44:28;;;;;;;2.55;0.90;;;;;;;18.19;42.84;98477.19;5031323;28;20437;-71
2023/03/10 05:46:54;;;;;;;3.33;0.90;;;;;;;18.18;42.89;98469.47;5030403;28;20036;-70
2023/03/10 05:49:19;;;;;;;4.40;1.00;;;;;;;18.16;43.02;98467.00;5031423;28;20258;-70
2023/03/10 05:51:44;;;;;;;3.15;1.13;;;;;;;18.15;42.93;98464.53;5030661;28;20388;-68
2023/03/10 05:54:10;;;;;;;3.05;1.00;;;;;;;18.15;43.05;98477.72;5031084;28;20408;-69
2023/03/10 05:56:36;;;;;;;4.05;1.00;;;;;;;18.15;43.17;98478.56;5031012;28;20495;-70
2023/03/10 05:59:01;;;;;;;3.63;1.02;;;;;;;18.13;42.77;98472.63;5029452;28;20033;-70
2023/03/10 06:01:27;;;;;;;3.45;1.10;;;;;;;18.15;42.96;98473.28;5031176;28;20036;-70
2023/03/10 06:03:52;;;;;;;3.85;1.00;;;;;;;18.16;43.30;98474.09;5031027;28;20390;-70
2023/03/10 06:06:17;;;;;;;4.28;1.10;;;;;;;18.12;43.03;98477.09;5030815;28;20129;-69
2023/03/10 06:08:43;;;;;;;3.03;1.10;;;;;;;18.12;43.06;98471.81;5030920;28;20385;-70
2023/03/10 06:11:09;;;;;;;4.07;1.10;;;;;;;18.12;42.90;98478.94;5030580;28;20116;-70
2023/03/10 06:13:34;;;;;;;4.07;1.00;;;;;;;18.13;43.15;98476.09;5031145;28;20080;-71
2023/03/10 06:16:02;;;;;;;4.28;1.40;;;;;;;18.12;42.91;98478.94;5030787;28;20547;-69
2023/03/10 06:18:28;;;;;;;3.65;1.10;;;;;;;18.13;43.05;98483.19;5029539;28;20062;-68
2023/03/10 06:20:54;;;;;;;3.28;1.20;;;;;;;18.12;43.13;98485.00;5030068;28;20080;-69
2023/03/10 06:23:20;;;;;;;4.85;1.30;;;;;;;18.10;42.85;98488.81;5031043;28;20112;-70
2023/03/10 06:25:58;;;;;;;4.63;1.10;;;;;;;18.10;43.25;98494.91;5029292;28;20615;-70
2023/03/10 06:28:25;;;;;;;3.80;0.95;;;;;;;18.11;43.06;98495.72;5030569;28;20025;-69
2023/03/10 06:30:56;;;;;;;3.33;1.20;;;;;;;18.09;43.21;98500.38;5030106;28;20416;-69
2023/03/10 06:33:23;;;;;;;3.80;1.10;;;;;;;18.12;42.91;98502.66;5031077;28;20032;-70
2023/03/10 06:35:48;;;;;;;3.10;1.15;;;;;;;18.09;42.99;98493.28;5030596;28;20144;-69
2023/03/10 06:38:14;;;;;;;1.98;0.80;;;;;;;18.10;43.11;98494.09;5030288;28;20167;-70
2023/03/10 06:40:39;;;;;;;4.03;0.90;;;;;;;18.09;42.91;98492.47;5030711;28;20060;-70
2023/03/10 06:43:04;;;;;;;5.07;1.17;;;;;;;18.10;42.74;98492.28;5021014;28;20410;-69
2023/03/10 06:45:29;;;;;;;3.88;1.08;;;;;;;18.11;43.09;98495.72;5030717;28;20116;-69
2023/03/10 06:47:55;;;;;;;1.90;0.63;;;;;;;18.15;43.36;98494.38;5030026;28;20048;-68
2023/03/10 06:50:20;;;;;;;4.35;1.00;;;;;;;18.19;43.30;98500.91;5030233;28;20033;-68
2023/03/10 06:52:45;;;;;;;2.40;0.73;;;;;;;18.22;43.50;98497.09;5030088;28;20045;-69
2023/03/10 06:55:12;;;;;;;2.40;0.88;;;;;;;18.24;43.65;98495.91;5029925;28;20072;-68
2023/03/10 06:57:38;;;;;;;2.03;0.70;;;;;;;18.28;43.55;98489.28;5029461;28;20033;-69
2023/03/10 07:00:09;;;;;;;3.15;1.10;;;;;;;18.39;43.76;98495.91;5030096;28;20087;-74
2023/03/10 07:02:34;;;;;;;3.60;1.00;;;;;;;18.41;43.79;98491.25;5030905;28;20064;-69
2023/03/10 07:05:00;;;;;;;3.85;1.05;;;;;;;18.51;43.93;98495.44;5033892;28;20061;-69
2023/03/10 07:07:25;;;;;;;4.40;1.10;;;;;;;18.54;43.75;98492.44;5033793;28;20033;-69
2023/03/10 07:09:50;;;;;;;2.45;0.77;;;;;;;18.55;44.15;98491.41;5033909;28;20037;-69
2023/03/10 07:12:16;;;;;;;2.95;1.00;;;;;;;18.60;43.92;98504.91;5033048;28;20029;-68
2023/03/10 07:14:41;;;;;;;4.95;1.05;;;;;;;18.62;44.26;98497.63;5032944;28;20128;-70
2023/03/10 07:17:06;;;;;;;3.67;0.90;;;;;;;18.63;44.43;98493.97;5033988;28;20038;-69
2023/03/10 07:19:32;;;;;;;5.45;0.90;;;;;;;18.64;44.26;98499.06;5034204;28;20053;-72
2023/03/10 07:21:57;;;;;;;3.30;0.90;;;;;;;18.66;44.18;98504.16;5033744;28;20065;-71
2023/03/10 07:24:22;;;;;;;3.07;1.03;;;;;;;18.65;44.51;98498.06;5033911;28;20075;-69
2023/03/10 07:26:47;;;;;;;3.85;1.00;;;;;;;18.65;44.60;98502.53;5032600;28;20290;-70
2023/03/10 07:29:13;;;;;;;4.63;1.10;;;;;;;18.72;44.76;98507.88;5031442;28;20045;-70
2023/03/10 07:31:38;;;;;;;4.78;1.20;;;;;;;18.70;44.83;98500.13;5033511;28;20116;-69
2023/03/10 07:34:03;;;;;;;4.03;1.10;;;;;;;18.76;44.47;98507.31;5032970;28;20986;-69
2023/03/10 07:36:29;;;;;;;3.47;1.10;;;;;;;18.78;45.05;98507.13;5023826;28;20507;-71
2023/03/10 07:38:55;;;;;;;2.70;0.77;;;;;;;18.82;44.83;98513.69;5033132;28;20528;-71
2023/03/10 07:41:20;;;;;;;3.97;0.80;;;;;;;18.83;44.85;98516.16;5032614;28;20040;-68
2023/03/10 07:43:46;;;;;;;3.22;0.98;;;;;;;18.84;44.64;98515.16;5033538;28;20037;-69
2023/03/10 07:46:13;;;;;;;3.38;0.90;;;;;;;18.89;44.53;98529.63;5034193;28;20436;-70
2023/03/10 07:48:38;;;;;;;2.90;0.88;;;;;;;18.88;44.34;98528.78;5033670;28;20045;-69
2023/03/10 07:51:04;;;;;;;4.65;1.05;;;;;;;18.91;44.63;98517.06;5033522;28;20032;-70
2023/03/10 07:53:30;;;;;;;3.50;0.90;;;;;;;18.91;44.63;98524.97;5031727;28;20074;-68
2023/03/10 07:55:55;;;;;;;4.00;1.00;;;;;;;18.93;44.78;98520.31;5023627;28;20030;-72
2023/03/10 07:58:22;;;;;;;3.25;0.80;;;;;;;18.89;44.46;98513.78;5033296;28;20037;-69
2023/03/10 08:00:57;;;;;;;3.70;1.10;;;;;;;18.90;44.38;98510.97;5033544;28;20094;-68
2023/03/10 08:03:27;;;;;;;2.65;0.73;;;;;;;18.93;44.50;98521.16;5033412;28;20037;-69
2023/03/10 08:05:53;;;;;;;3.80;0.88;;;;;;;18.96;44.54;98530.50;5032262;28;20041;-71
2023/03/10 08:08:18;;;;;;;9.38;1.20;;;;;;;19.00;44.66;98521.22;5032842;28;20033;-70
2023/03/10 08:10:44;;;;;;;3.10;1.00;;;;;;;18.99;44.27;98514.28;5033207;28;20025;-69
2023/03/10 08:13:09;;;;;;;6.50;1.20;;;;;;;19.03;44.14;98526.94;5032162;28;20473;-71
2023/03/10 08:15:37;;;;;;;2.80;0.90;;;;;;;19.09;44.05;98524.56;5034151;28;20033;-77
2023/03/10 08:18:04;;;;;;;2.15;0.70;;;;;;;19.11;43.97;98515.44;5033125;28;20056;-73
2023/03/10 08:20:31;;;;;;;3.95;0.88;;;;;;;19.12;43.97;98524.19;5030174;28;20036;-68
2023/03/10 08:22:56;;;;;;;2.78;0.95;;;;;;;19.13;43.96;98526.63;5032355;28;20021;-68
2023/03/10 08:25:21;;;;;;;5.55;1.48;;;;;;;19.13;44.17;98518.72;5032503;28;20032;-68
2023/03/10 08:27:49;;;;;;;2.97;0.88;;;;;;;19.14;44.28;98525.63;5032085;28;20151;-68
2023/03/10 08:30:14;;;;;;;2.00;0.60;;;;;;;19.17;43.85;98519.19;5031862;28;20111;-69
2023/03/10 08:32:40;;;;;;;5.30;0.90;;;;;;;19.21;43.88;98528.34;5031718;28;20033;-68
2023/03/10 08:35:06;;;;;;;4.65;0.93;;;;;;;19.27;43.78;98524.16;5031429;28;20116;-71
2023/03/10 08:37:31;;;;;;;5.38;1.02;;;;;;;19.26;43.70;98519.84;5031020;28;20043;-69
2023/03/10 08:39:57;;;;;;;5.40;0.70;;;;;;;19.30;43.81;98521.13;5031627;28;20568;-68
2023/03/10 08:42:23;;;;;;;2.47;1.05;;;;;;;19.36;43.56;98530.94;5031416;28;20079;-67
2023/03/10 08:44:48;;;;;;;4.13;0.80;;;;;;;19.36;43.75;98523.03;5031213;28;20038;-71
2023/03/10 08:47:13;;;;;;;4.05;1.08;;;;;;;19.41;43.61;98525.91;5031313;28;20559;-70
2023/03/10 08:49:39;;;;;;;4.15;1.10;;;;;;;19.41;43.87;98528.56;5029621;28;20041;-69
2023/03/10 08:52:06;;;;;;;4.55;0.90;;;;;;;19.43;43.85;98526.53;5031952;28;20037;-70
2023/03/10 08:54:31;;;;;;;3.67;0.98;;;;;;;19.45;43.53;98529.78;5031060;28;20048;-70
2023/03/10 08:56:57;;;;;;;2.95;0.80;;;;;;;19.53;43.56;98527.00;5047232;28;20049;-73
2023/03/10 08:59:22;;;;;;;2.88;1.02;;;;;;;19.53;43.37;98526.19;5022507;28;20032;-67
2023/03/10 09:01:47;;;;;;;4.27;1.17;;;;;;;19.55;43.44;98530.31;5032125;28;20036;-71
2023/03/10 09:04:13;;;;;;;4.40;1.00;;;;;;;19.52;43.48;98528.03;5030717;28;20254;-75
2023/03/10 09:06:39;;;;;;;2.38;0.90;;;;;;;19.48;43.54;98521.50;5032142;28;20033;-76
2023/03/10 09:09:06;;;;;;;4.18;0.88;;;;;;;19.49;43.57;98528.41;5029873;28;20029;-73
2023/03/10 09:11:34;;;;;;;3.58;1.13;;;;;;;19.53;43.76;98524.38;5021525;28;20025;-74
2023/03/10 09:14:01;;;;;;;3.50;0.90;;;;;;;19.51;43.64;98525.59;5030922;28;20086;-73
2023/03/10 09:16:27;;;;;;;2.58;0.80;;;;;;;19.52;43.56;98525.41;5031158;28;20044;-74
2023/03/10 09:18:53;;;;;;;5.35;1.25;;;;;;;19.54;43.52;98520.72;5021125;28;20053;-71
2023/03/10 09:21:19;;;;;;;5.85;1.38;;;;;;;19.57;43.58;98522.19;5031324;28;20107;-72
2023/03/10 09:23:47;;;;;;;5.35;1.10;;;;;;;19.59;43.66;98522.81;5031201;28;20033;-70
2023/03/10 09:26:12;;;;;;;7.18;1.05;;;;;;;19.58;43.52;98522.00;5031249;28;20088;-68
2023/03/10 09:28:38;;;;;;;4.78;1.00;;;;;;;19.60;43.63;98523.63;5030754;28;20041;-68
2023/03/10 09:31:04;;;;;;;4.15;0.95;;;;;;;19.57;43.47;98522.19;5030328;28;20469;-66
2023/03/10 09:33:31;;;;;;;4.25;0.90;;;;;;;19.63;43.48;98524.06;5030990;28;20064;-69
2023/03/10 09:35:57;;;;;;;9.35;1.30;;;;;;;19.61;43.62;98518.13;5030645;28;20041;-70
2023/03/10 09:38:23;;;;;;;3.20;0.88;;;;;;;19.61;43.47;98520.78;5029930;28;20149;-70
2023/03/10 09:40:56;;;;;;;4.30;1.00;;;;;;;19.57;43.50;98520.34;5030420;28;20152;-69
2023/03/10 09:43:22;;;;;;;7.43;1.23;;;;;;;19.58;43.43;98524.66;5030473;28;20025;-72
2023/03/10 09:45:59;;;;;;;7.53;1.30;;;;;;;19.59;43.62;98528.09;5046569;28;20285;-73
2023/03/10 09:48:45;;;;;;;5.43;1.75;;;;;;;19.56;43.65;98539.84;5031138;28;20043;-72
2023/03/10 09:51:15;;;;;;;4.03;0.98;;;;;;;19.55;43.63;98538.22;5031773;28;20470;-72
2023/03/10 09:53:40;;;;;;;3.50;1.00;;;;;;;19.56;43.47;98533.75;5031025;28;20083;-75
2023/03/10 09:56:16;;;;;;;4.15;1.15;;;;;;;19.55;43.84;98537.38;5031224;28;20029;-73
2023/03/10 09:58:48;;;;;;;4.70;1.20;;;;;;;19.55;43.81;98543.50;5030499;28;20051;-70
2023/03/10 10:01:21;;;;;;;5.80;1.33;;;;;;;19.53;43.94;98536.78;5035777;28;20880;-74
2023/03/10 10:04:05;;;;;;;4.13;1.00;;;;;;;19.55;43.81;98542.69;5028728;28;20055;-68
2023/03/10 10:06:37;;;;;;;5.57;0.82;;;;;;;19.55;43.66;98546.16;5028985;28;20041;-71
2023/03/10 10:09:13;;;;;;;4.88;1.33;;;;;;;19.58;43.59;98552.88;5028914;28;20044;-68
2023/03/10 10:11:39;;;;;;;6.88;1.27;;;;;;;19.56;43.57;98553.06;5030788;28;20040;-71
2023/03/10 10:14:19;;;;;;;4.47;1.00;;;;;;;19.54;43.74;98551.63;5030326;28;20045;-71
2023/03/10 10:16:54;;;;;;;4.53;0.93;;;;;;;19.52;43.87;98557.09;5024299;28;20057;-68
2023/03/10 10:19:20;;;;;;;6.55;1.15;;;;;;;19.55;43.82;98561.16;5031794;28;20053;-69
2023/03/10 10:22:05;;;;;;;4.88;1.20;;;;;;;19.55;44.02;98559.38;5029788;28;20036;-68
2023/03/10 10:24:31;;;;;;;4.75;1.25;;;;;;;19.52;43.75;98559.75;5045993;28;20420;-69
2023/03/10 10:26:56;;;;;;;10.02;1.48;;;;;;;19.51;43.87;98555.44;5021115;28;20045;-68
2023/03/10 10:29:49;;;;;;;6.45;1.50;;;;;;;19.53;43.87;98557.91;5030592;28;20029;-69
2023/03/10 10:32:15;;;;;;;8.00;1.40;;;;;;;19.52;44.05;98556.28;5029604;28;20045;-67
2023/03/10 10:34:42;;;;;;;4.75;1.20;;;;;;;19.50;44.07;98553.00;5030681;28;20030;-69
2023/03/10 10:37:22;;;;;;;5.35;1.35;;;;;;;19.49;44.04;98557.47;5030383;28;20085;-68
2023/03/10 10:39:50;;;;;;;4.57;1.02;;;;;;;19.39;43.97;98547.22;5041065;28;20594;-70
2023/03/10 10:42:24;;;;;;;4.45;1.00;;;;;;;19.46;44.13;98562.31;5033861;28;20120;-71
2023/03/10 10:44:58;;;;;;;4.07;1.10;;;;;;;19.45;44.09;98550.13;5033319;28;20038;-70
2023/03/10 10:47:35;;;;;;;7.85;1.30;;;;;;;19.49;44.03;98548.75;5033545;28;20029;-69
2023/03/10 10:50:17;;;;;;;7.82;0.88;;;;;;;19.45;44.08;98540.34;5033374;28;20033;-75
2023/03/10 10:52:47;;;;;;;8.00;1.42;;;;;;;19.45;44.38;98540.34;5034158;28;20068;-68
2023/03/10 10:55:33;;;;;;;7.95;1.00;;;;;;;19.40;44.33;98527.72;5033323;28;20116;-69
2023/03/10 10:58:02;;;;;;;2.95;1.00;;;;;;;19.47;43.64;98527.78;5031401;28;20052;-70
2023/03/10 11:00:33;;;;;;;8.20;1.25;;;;;;;19.45;44.06;98524.50;5032006;28;20028;-70
2023/03/10 11:02:58;;;;;;;3.92;1.08;;;;;;;19.51;43.83;98517.66;5033453;28;20124;-70
2023/03/10 11:05:32;;;;;;;6.32;1.30;;;;;;;19.48;44.10;98513.56;5034150;28;20136;-72
2023/03/10 11:08:15;;;;;;;4.65;1.00;;;;;;;19.49;44.21;98519.69;5032371;28;20037;-71
2023/03/10 11:10:41;;;;;;;5.45;1.30;;;;;;;19.48;44.22;98523.31;5033046;28;20029;-70
2023/03/10 11:13:23;;;;;;;5.18;1.50;;;;;;;19.44;44.54;98525.53;5032301;28;20140;-67
2023/03/10 11:15:51;;;;;;;5.93;1.33;;;;;;;19.49;44.23;98530.25;5031773;28;20048;-71
2023/03/10 11:18:25;;;;;;;4.93;1.15;;;;;;;19.44;44.63;98529.97;5032752;28;20044;-71
2023/03/10 11:20:56;;;;;;;5.53;1.10;;;;;;;19.48;44.39;98513.56;5032963;28;20072;-70
2023/03/10 11:23:30;;;;;;;5.55;0.90;;;;;;;19.49;44.38;98517.03;5032079;28;20643;-70
2023/03/10 11:26:12;;;;;;;4.38;1.10;;;;;;;19.51;44.27;98518.47;5033150;28;20917;-70
2023/03/10 11:28:51;;;;;;;4.20;1.00;;;;;;;19.54;44.48;98515.44;5032062;28;20138;-67
2023/03/10 11:31:40;;;;;;;4.28;1.10;;;;;;;19.48;44.29;98518.84;5031507;28;20037;-66
2023/03/10 11:34:19;;;;;;;5.03;1.25;;;;;;;19.40;44.34;98503.13;5032610;28;20025;-68
2023/03/10 11:37:21;;;;;;;6.38;1.40;;;;;;;19.40;44.55;98501.28;5032992;28;20084;-67